KLM655 EHAM-KMSP
Flight info
| Callsign | KLM655 |
|---|---|
| Flight time | N/A |
| Altitude | 36000 |
| Route | BERGI L602 SUPUR P1 GODOS DCT ROKAN DCT GIGUL DCT UPNAL DCT DOKEN DCT BALIX/M085F360 DCT 62N020W/M085F380 63N030W 64N040W 63N050W 62N060W DCT GRIBS/N0489F380 DCT JELCO DCT TUNNI DCT 57N080W/N0487F400 55N083W 50N089W DCT DLH DCT COLDD BAINY3 |
| Aircraft | B789/H-SDE1E2E3FGHIJ2J3J4J5M1RWXY/LB1D1 |
Departure
| Time | 2026-04-18 08:37 |
|---|---|
| Airport | Amsterdam Airport Schiphol (EHAM) |
Arrival
| Time | N/A |
|---|---|
| Airport | Minneapolis–Saint Paul International Airport / Wold–Chamberlain Field (KMSP) |
| Time | Latitude | Longitude | Altitude | Speed | Heading |
|---|---|---|---|---|---|
| 2026-04-18 08:06 | 52.31361 | 4.76173 | 4 ft | 0 kts | 177° |
| 2026-04-18 08:07 | 52.31369 | 4.76173 | 4 ft | 0 kts | 177° |
| 2026-04-18 08:07 | 52.31361 | 4.76173 | 4 ft | 0 kts | 177° |
| 2026-04-18 08:25 | 52.31365 | 4.76173 | 4 ft | 3 kts | 177° |
| 2026-04-18 08:25 | 52.31392 | 4.76171 | 5 ft | 4 kts | 179° |
| 2026-04-18 08:25 | 52.31419 | 4.76172 | 6 ft | 4 kts | 186° |
| 2026-04-18 08:25 | 52.31444 | 4.76181 | 7 ft | 4 kts | 216° |
| 2026-04-18 08:26 | 52.31454 | 4.76206 | 7 ft | 3 kts | 266° |
| 2026-04-18 08:26 | 52.31456 | 4.76249 | 7 ft | 4 kts | 266° |
| 2026-04-18 08:26 | 52.31457 | 4.76294 | 7 ft | 4 kts | 266° |
| 2026-04-18 08:26 | 52.31459 | 4.76338 | 7 ft | 4 kts | 266° |
| 2026-04-18 08:27 | 52.31460 | 4.76382 | 7 ft | 4 kts | 266° |
| 2026-04-18 08:27 | 52.31462 | 4.76426 | 4 ft | 4 kts | 266° |
| 2026-04-18 08:27 | 52.31463 | 4.76457 | 4 ft | 0 kts | 266° |
| 2026-04-18 08:30 | 52.31463 | 4.76445 | 4 ft | 2 kts | 266° |
| 2026-04-18 08:30 | 52.31455 | 4.76416 | 6 ft | 3 kts | 229° |
| 2026-04-18 08:30 | 52.31418 | 4.76402 | 4 ft | 9 kts | 173° |
| 2026-04-18 08:31 | 52.31358 | 4.76441 | 4 ft | 9 kts | 137° |
| 2026-04-18 08:31 | 52.31351 | 4.76521 | 4 ft | 7 kts | 68° |
| 2026-04-18 08:31 | 52.31392 | 4.76586 | 4 ft | 9 kts | 34° |
| 2026-04-18 08:31 | 52.31443 | 4.76642 | 4 ft | 9 kts | 36° |
| 2026-04-18 08:32 | 52.31472 | 4.76733 | 4 ft | 11 kts | 81° |
| 2026-04-18 08:32 | 52.31477 | 4.76881 | 4 ft | 15 kts | 87° |
| 2026-04-18 08:32 | 52.31483 | 4.77061 | 4 ft | 16 kts | 87° |
| 2026-04-18 08:32 | 52.31445 | 4.77217 | 4 ft | 15 kts | 128° |
| 2026-04-18 08:33 | 52.31380 | 4.77344 | 4 ft | 14 kts | 131° |
| 2026-04-18 08:33 | 52.31313 | 4.77463 | 4 ft | 14 kts | 143° |
| 2026-04-18 08:33 | 52.31227 | 4.77502 | 4 ft | 13 kts | 180° |
| 2026-04-18 08:33 | 52.31142 | 4.77494 | 4 ft | 12 kts | 182° |
| 2026-04-18 08:34 | 52.31039 | 4.77487 | 4 ft | 18 kts | 182° |
| 2026-04-18 08:34 | 52.30924 | 4.77476 | 4 ft | 16 kts | 183° |
| 2026-04-18 08:34 | 52.30817 | 4.77465 | 4 ft | 15 kts | 183° |
| 2026-04-18 08:34 | 52.30717 | 4.77455 | 4 ft | 12 kts | 184° |
| 2026-04-18 08:35 | 52.30640 | 4.77485 | 4 ft | 11 kts | 156° |
| 2026-04-18 08:35 | 52.30593 | 4.77521 | 4 ft | 11 kts | 154° |
| 2026-04-18 08:35 | 52.30527 | 4.77576 | 4 ft | 11 kts | 153° |
| 2026-04-18 08:35 | 52.30463 | 4.77630 | 4 ft | 10 kts | 154° |
| 2026-04-18 08:36 | 52.30412 | 4.77615 | 5 ft | 7 kts | 219° |
| 2026-04-18 08:36 | 52.30377 | 4.77537 | 3 ft | 13 kts | 238° |
| 2026-04-18 08:36 | 52.30278 | 4.77279 | 1 ft | 49 kts | 238° |
| 2026-04-18 08:36 | 52.29997 | 4.76553 | 3 ft | 102 kts | 238° |
| 2026-04-18 08:37 | 52.29532 | 4.75343 | 3 ft | 148 kts | 238° |
| 2026-04-18 08:37 | 52.28933 | 4.73778 | 231 ft | 165 kts | 240° |
| 2026-04-18 08:37 | 52.28330 | 4.72263 | 1032 ft | 158 kts | 238° |
| 2026-04-18 08:37 | 52.27657 | 4.70792 | 1706 ft | 166 kts | 233° |
| 2026-04-18 08:38 | 52.27156 | 4.69837 | 2142 ft | 168 kts | 230° |
| 2026-04-18 08:38 | 52.26015 | 4.67946 | 2847 ft | 184 kts | 226° |
| 2026-04-18 08:38 | 52.25102 | 4.66515 | 3626 ft | 180 kts | 226° |
| 2026-04-18 08:38 | 52.24226 | 4.65001 | 4033 ft | 195 kts | 239° |
| 2026-04-18 08:39 | 52.23904 | 4.62750 | 4119 ft | 221 kts | 259° |
| 2026-04-18 08:39 | 52.23441 | 4.60186 | 4320 ft | 243 kts | 250° |
| 2026-04-18 08:39 | 52.23292 | 4.57483 | 5116 ft | 245 kts | 279° |
| 2026-04-18 08:39 | 52.23872 | 4.54831 | 5761 ft | 256 kts | 301° |
| 2026-04-18 08:40 | 52.25059 | 4.52805 | 6456 ft | 265 kts | 322° |
| 2026-04-18 08:40 | 52.26662 | 4.51244 | 7101 ft | 270 kts | 324° |
| 2026-04-18 08:40 | 52.28220 | 4.49523 | 7802 ft | 271 kts | 319° |
| 2026-04-18 08:40 | 52.29715 | 4.47624 | 8488 ft | 273 kts | 317° |
| 2026-04-18 08:41 | 52.31225 | 4.45683 | 9160 ft | 277 kts | 317° |
| 2026-04-18 08:41 | 52.32777 | 4.43752 | 9820 ft | 281 kts | 318° |
| 2026-04-18 08:41 | 52.34318 | 4.41852 | 10392 ft | 288 kts | 318° |
| 2026-04-18 08:41 | 52.35980 | 4.39773 | 10418 ft | 314 kts | 318° |
| 2026-04-18 08:42 | 52.37782 | 4.37515 | 10470 ft | 337 kts | 318° |
| 2026-04-18 08:42 | 52.39671 | 4.35164 | 10856 ft | 346 kts | 319° |
| 2026-04-18 08:42 | 52.41596 | 4.32771 | 11491 ft | 349 kts | 319° |
| 2026-04-18 08:42 | 52.43534 | 4.30344 | 12071 ft | 352 kts | 318° |
| 2026-04-18 08:43 | 52.45488 | 4.27889 | 12639 ft | 356 kts | 318° |
| 2026-04-18 08:43 | 52.47467 | 4.25406 | 13200 ft | 360 kts | 318° |
| 2026-04-18 08:43 | 52.49464 | 4.22900 | 13783 ft | 363 kts | 318° |
| 2026-04-18 08:43 | 52.51482 | 4.20364 | 14308 ft | 366 kts | 318° |
| 2026-04-18 08:44 | 52.53512 | 4.17807 | 14821 ft | 369 kts | 318° |
| 2026-04-18 08:44 | 52.55552 | 4.15234 | 15320 ft | 371 kts | 318° |
| 2026-04-18 08:44 | 52.57608 | 4.12640 | 15811 ft | 374 kts | 318° |
| 2026-04-18 08:44 | 52.59680 | 4.10023 | 16309 ft | 376 kts | 318° |
| 2026-04-18 08:45 | 52.61733 | 4.07426 | 16785 ft | 379 kts | 318° |
| 2026-04-18 08:45 | 52.63828 | 4.04770 | 17256 ft | 381 kts | 318° |
| 2026-04-18 08:45 | 52.65965 | 4.02061 | 17730 ft | 384 kts | 318° |
| 2026-04-18 08:45 | 52.68058 | 3.99404 | 18225 ft | 386 kts | 317° |
| 2026-04-18 08:46 | 52.70187 | 3.96697 | 18679 ft | 387 kts | 317° |
| 2026-04-18 08:46 | 52.72332 | 3.93964 | 19012 ft | 391 kts | 317° |
| 2026-04-18 08:46 | 52.74495 | 3.91207 | 19400 ft | 393 kts | 317° |
| 2026-04-18 08:46 | 52.76662 | 3.88442 | 19762 ft | 395 kts | 317° |
| 2026-04-18 08:47 | 52.78847 | 3.85650 | 20126 ft | 397 kts | 317° |
| 2026-04-18 08:47 | 52.81039 | 3.82844 | 20474 ft | 400 kts | 316° |
| 2026-04-18 08:47 | 52.83250 | 3.80011 | 20826 ft | 402 kts | 316° |
| 2026-04-18 08:47 | 52.85467 | 3.77166 | 21168 ft | 404 kts | 316° |
| 2026-04-18 08:48 | 52.87692 | 3.74308 | 21495 ft | 406 kts | 316° |
| 2026-04-18 08:48 | 52.89930 | 3.71429 | 21837 ft | 408 kts | 316° |
| 2026-04-18 08:48 | 52.92180 | 3.68531 | 22149 ft | 410 kts | 316° |
| 2026-04-18 08:48 | 52.94436 | 3.65620 | 22479 ft | 412 kts | 316° |
| 2026-04-18 08:49 | 52.96677 | 3.62725 | 22793 ft | 414 kts | 316° |
| 2026-04-18 08:49 | 52.98957 | 3.59776 | 23072 ft | 416 kts | 316° |
| 2026-04-18 08:49 | 53.01342 | 3.57008 | 23328 ft | 425 kts | 325° |
| 2026-04-18 08:49 | 53.04069 | 3.54983 | 23643 ft | 434 kts | 335° |
| 2026-04-18 08:50 | 53.06931 | 3.53351 | 23902 ft | 435 kts | 335° |
| 2026-04-18 08:50 | 53.09790 | 3.51696 | 24140 ft | 436 kts | 335° |
| 2026-04-18 08:50 | 53.12666 | 3.50038 | 24370 ft | 438 kts | 335° |
| 2026-04-18 08:50 | 53.15550 | 3.48380 | 24580 ft | 439 kts | 335° |
| 2026-04-18 08:51 | 53.18441 | 3.46712 | 24791 ft | 441 kts | 335° |